createdAt,value
2023-12-10T00:01:44.000Z,4.31
2023-12-10T00:04:10.704Z,4.46
2023-12-10T00:06:37.419Z,4.54
2023-12-10T00:09:04.028Z,4.48
2023-12-10T00:11:30.604Z,4.44
2023-12-10T00:13:57.184Z,4.36
2023-12-10T00:16:23.740Z,4.42
2023-12-10T00:18:50.447Z,4.42
2023-12-10T00:21:17.085Z,4.36
2023-12-10T00:23:43.793Z,4.42
2023-12-10T00:26:10.396Z,4.47
2023-12-10T00:28:37.429Z,4.49
2023-12-10T00:31:09.019Z,4.47
2023-12-10T00:33:35.871Z,4.53
2023-12-10T00:36:02.729Z,4.44
2023-12-10T00:38:29.250Z,4.48
2023-12-10T00:40:55.911Z,4.50
2023-12-10T00:43:22.511Z,4.56
2023-12-10T00:45:49.368Z,4.60
2023-12-10T00:48:16.102Z,4.65
2023-12-10T00:50:42.921Z,4.58
2023-12-10T00:53:09.455Z,4.68
2023-12-10T00:55:36.014Z,4.67
2023-12-10T00:58:02.598Z,4.61
2023-12-10T01:00:29.217Z,4.66
2023-12-10T01:02:57.525Z,4.60
2023-12-10T01:05:24.184Z,4.57
2023-12-10T01:07:50.782Z,4.53
2023-12-10T01:10:17.530Z,4.64
2023-12-10T01:12:44.086Z,4.59
2023-12-10T01:15:11.630Z,4.58
2023-12-10T01:17:38.275Z,4.51
2023-12-10T01:20:05.266Z,4.45
2023-12-10T01:22:31.924Z,4.57
2023-12-10T01:24:59.905Z,4.42
2023-12-10T01:27:26.972Z,4.41
2023-12-10T01:29:53.805Z,4.50
2023-12-10T01:32:21.836Z,4.43
2023-12-10T01:34:48.654Z,4.41
2023-12-10T01:37:15.323Z,4.44
2023-12-10T01:39:42.008Z,4.43
2023-12-10T01:42:09.310Z,4.32
2023-12-10T01:44:35.917Z,4.38
2023-12-10T01:47:03.382Z,4.35
2023-12-10T01:49:30.375Z,4.31
2023-12-10T01:51:57.391Z,4.31
2023-12-10T01:54:26.010Z,4.37
2023-12-10T01:57:00.237Z,4.44
2023-12-10T01:59:33.506Z,4.40
2023-12-10T02:02:00.585Z,4.31
2023-12-10T02:04:27.986Z,4.34
2023-12-10T02:06:54.952Z,4.19
2023-12-10T02:09:21.814Z,4.27
2023-12-10T02:11:48.512Z,4.25
2023-12-10T02:14:15.245Z,4.24
2023-12-10T02:16:41.948Z,4.34
2023-12-10T02:19:09.007Z,4.33
2023-12-10T02:21:35.796Z,4.19
2023-12-10T02:24:05.721Z,4.13
2023-12-10T02:26:32.889Z,4.13
2023-12-10T02:28:59.640Z,4.17
2023-12-10T02:31:26.944Z,4.21
2023-12-10T02:33:53.601Z,4.20
2023-12-10T02:36:20.286Z,4.12
2023-12-10T02:38:49.233Z,4.13
2023-12-10T02:41:16.432Z,4.15
2023-12-10T02:43:43.039Z,4.18
2023-12-10T02:46:09.625Z,4.13
2023-12-10T02:48:36.222Z,4.04
2023-12-10T02:51:02.897Z,3.98
2023-12-10T02:53:29.413Z,3.93
2023-12-10T02:55:58.577Z,3.88
2023-12-10T02:58:25.123Z,3.92
2023-12-10T03:00:51.788Z,3.84
2023-12-10T03:03:18.431Z,3.76
2023-12-10T03:05:44.954Z,3.69
2023-12-10T03:08:11.489Z,3.75
2023-12-10T03:10:38.018Z,3.65
2023-12-10T03:13:04.658Z,3.81
2023-12-10T03:15:31.264Z,3.77
2023-12-10T03:17:57.941Z,3.74
2023-12-10T03:20:25.330Z,3.78
2023-12-10T03:22:51.893Z,3.71
2023-12-10T03:25:18.434Z,3.69
2023-12-10T03:27:45.272Z,3.70
2023-12-10T03:30:12.336Z,3.72
2023-12-10T03:32:38.829Z,3.69
2023-12-10T03:35:05.622Z,3.65
2023-12-10T03:37:32.191Z,3.69
2023-12-10T03:39:58.764Z,3.56
2023-12-10T03:42:25.439Z,3.63
2023-12-10T03:44:52.012Z,3.59
2023-12-10T03:47:18.530Z,3.62
2023-12-10T03:49:45.201Z,3.58
2023-12-10T03:52:11.994Z,3.57
2023-12-10T03:54:38.623Z,3.69
2023-12-10T03:57:05.359Z,3.75
2023-12-10T03:59:32.146Z,3.69
2023-12-10T04:01:58.681Z,3.67
2023-12-10T04:04:25.350Z,3.68
2023-12-10T04:06:52.100Z,3.73
2023-12-10T04:09:18.815Z,3.66
2023-12-10T04:11:45.442Z,3.74
2023-12-10T04:14:12.053Z,3.76
2023-12-10T04:16:39.650Z,3.70
2023-12-10T04:19:06.693Z,3.75
2023-12-10T04:21:33.351Z,3.74
2023-12-10T04:23:59.995Z,3.74
2023-12-10T04:26:27.615Z,3.76
2023-12-10T04:28:54.166Z,3.69
2023-12-10T04:31:20.748Z,3.85
2023-12-10T04:33:47.490Z,3.78
2023-12-10T04:36:14.912Z,3.83
2023-12-10T04:38:41.838Z,3.85
2023-12-10T04:41:08.449Z,3.91
2023-12-10T04:43:34.935Z,3.78
2023-12-10T04:46:01.538Z,3.90
2023-12-10T04:48:28.307Z,3.93
2023-12-10T04:50:55.069Z,3.86
2023-12-10T04:53:21.628Z,3.85
2023-12-10T04:55:48.200Z,3.94
2023-12-10T04:58:14.880Z,3.76
2023-12-10T05:00:42.191Z,3.80
2023-12-10T05:03:08.953Z,3.84
2023-12-10T05:05:35.563Z,3.75
2023-12-10T05:08:02.174Z,3.79
2023-12-10T05:10:31.813Z,3.71
2023-12-10T05:12:59.279Z,3.72
2023-12-10T05:15:25.972Z,3.73
2023-12-10T05:17:52.756Z,3.81
2023-12-10T05:20:19.397Z,3.85
2023-12-10T05:22:46.009Z,3.79
2023-12-10T05:25:12.738Z,3.89
2023-12-10T05:27:39.322Z,3.79
2023-12-10T05:30:06.609Z,3.69
2023-12-10T05:32:33.319Z,3.70
2023-12-10T05:34:59.907Z,3.63
2023-12-10T05:37:26.410Z,3.66
2023-12-10T05:39:52.979Z,3.68
2023-12-10T05:42:19.572Z,3.76
2023-12-10T05:44:46.254Z,3.74
2023-12-10T05:47:12.792Z,3.72
2023-12-10T05:49:39.477Z,3.73
2023-12-10T05:52:06.632Z,3.79
2023-12-10T05:54:33.240Z,3.82
2023-12-10T05:57:00.078Z,3.79
2023-12-10T05:59:26.621Z,3.75
2023-12-10T06:01:53.214Z,3.76
2023-12-10T06:04:19.847Z,3.79
2023-12-10T06:06:47.130Z,3.66
2023-12-10T06:09:15.377Z,3.90
2023-12-10T06:11:42.047Z,3.79
2023-12-10T06:14:08.634Z,3.80
2023-12-10T06:16:35.203Z,3.72
2023-12-10T06:19:01.795Z,3.88
2023-12-10T06:21:28.557Z,3.97
2023-12-10T06:23:55.185Z,3.89
2023-12-10T06:26:22.279Z,3.93
2023-12-10T06:28:48.947Z,3.93
2023-12-10T06:31:15.470Z,3.88
2023-12-10T06:33:45.936Z,3.79
2023-12-10T06:36:12.671Z,3.78
2023-12-10T06:38:39.255Z,3.97
2023-12-10T06:41:07.017Z,3.96
2023-12-10T06:43:33.581Z,3.92
2023-12-10T06:46:01.259Z,3.97
2023-12-10T06:48:28.109Z,3.95
2023-12-10T06:50:54.840Z,4.03
2023-12-10T06:53:21.513Z,4.05
2023-12-10T06:55:48.088Z,4.00
2023-12-10T06:58:14.686Z,3.90
2023-12-10T07:00:41.385Z,3.90
2023-12-10T07:03:08.283Z,4.03
2023-12-10T07:05:35.292Z,4.05
2023-12-10T07:08:02.621Z,3.98
2023-12-10T07:10:29.195Z,4.02
2023-12-10T07:12:55.953Z,4.05
2023-12-10T07:15:22.908Z,4.03
2023-12-10T07:17:49.792Z,4.10
2023-12-10T07:20:16.655Z,4.13
2023-12-10T07:22:43.420Z,4.06
2023-12-10T07:25:10.308Z,4.06
2023-12-10T07:27:36.937Z,4.11
2023-12-10T07:30:04.071Z,4.08
2023-12-10T07:32:30.849Z,4.18
2023-12-10T07:34:57.642Z,4.18
2023-12-10T07:37:24.201Z,4.11
2023-12-10T07:39:50.835Z,4.23
2023-12-10T07:42:17.904Z,4.14
2023-12-10T07:44:44.894Z,4.12
2023-12-10T07:47:13.337Z,4.06
2023-12-10T07:49:40.396Z,4.20
2023-12-10T07:52:07.689Z,4.19
2023-12-10T07:54:34.279Z,4.17
2023-12-10T07:57:00.823Z,4.16
2023-12-10T07:59:27.370Z,4.23
2023-12-10T08:01:54.033Z,4.21
2023-12-10T08:04:20.638Z,4.15
2023-12-10T08:06:47.459Z,4.23
2023-12-10T08:09:14.236Z,4.22
2023-12-10T08:11:40.835Z,4.29
2023-12-10T08:14:07.512Z,4.29
2023-12-10T08:16:37.161Z,4.23
2023-12-10T08:19:05.471Z,4.25
2023-12-10T08:21:32.559Z,4.23
2023-12-10T08:23:59.254Z,4.38
2023-12-10T08:26:25.975Z,4.28
2023-12-10T08:28:53.600Z,4.41
2023-12-10T08:31:20.121Z,4.33
2023-12-10T08:33:48.340Z,4.42
2023-12-10T08:36:15.165Z,4.36
2023-12-10T08:38:41.916Z,4.31
2023-12-10T08:41:09.672Z,4.21
2023-12-10T08:43:36.672Z,4.27
2023-12-10T08:46:03.636Z,4.35
2023-12-10T08:48:31.510Z,4.34
2023-12-10T08:50:58.269Z,4.58
2023-12-10T08:53:24.878Z,4.64
2023-12-10T08:55:51.459Z,4.54
2023-12-10T08:58:18.039Z,4.51
2023-12-10T09:00:44.932Z,4.39
2023-12-10T09:03:12.282Z,4.43
2023-12-10T09:05:39.102Z,4.74
2023-12-10T09:08:07.781Z,4.70
2023-12-10T09:10:35.187Z,4.72
2023-12-10T09:13:02.034Z,4.67
2023-12-10T09:15:28.808Z,4.57
2023-12-10T09:17:55.590Z,4.70
2023-12-10T09:20:22.383Z,4.67
2023-12-10T09:22:49.018Z,4.70
2023-12-10T09:25:16.056Z,4.71
2023-12-10T09:27:42.758Z,4.85
2023-12-10T09:30:09.955Z,4.89
2023-12-10T09:32:36.661Z,4.98
2023-12-10T09:35:05.473Z,5.09
2023-12-10T09:37:32.354Z,5.10
2023-12-10T09:39:59.136Z,5.10
2023-12-10T09:42:25.799Z,5.15
2023-12-10T09:44:52.498Z,5.24
2023-12-10T09:47:21.120Z,5.21
2023-12-10T09:49:47.817Z,5.19
2023-12-10T09:52:14.430Z,5.27
2023-12-10T09:54:42.324Z,5.39
2023-12-10T09:57:09.312Z,5.33
2023-12-10T09:59:36.844Z,5.41
2023-12-10T10:02:05.361Z,5.34
2023-12-10T10:04:32.038Z,5.41
2023-12-10T10:06:58.935Z,5.41
2023-12-10T10:09:32.771Z,5.36
2023-12-10T10:12:04.487Z,5.33
2023-12-10T10:14:31.170Z,5.33
2023-12-10T10:16:57.919Z,5.40
2023-12-10T10:19:27.194Z,5.48
2023-12-10T10:21:55.300Z,5.48
2023-12-10T10:24:23.088Z,5.51
2023-12-10T10:26:50.244Z,5.49
2023-12-10T10:29:17.056Z,5.61
2023-12-10T10:31:45.530Z,5.80
2023-12-10T10:34:14.111Z,5.72
2023-12-10T10:36:41.835Z,5.62
2023-12-10T10:39:09.035Z,5.69
2023-12-10T10:41:37.475Z,5.93
2023-12-10T10:44:04.060Z,5.92
2023-12-10T10:46:31.314Z,5.93
2023-12-10T10:48:59.981Z,5.84
2023-12-10T10:51:30.974Z,5.78
2023-12-10T10:53:59.694Z,5.82
2023-12-10T10:56:27.089Z,5.88
2023-12-10T10:58:53.768Z,5.88
2023-12-10T11:01:40.519Z,5.86
2023-12-10T11:04:13.117Z,5.99
2023-12-10T11:06:42.510Z,6.19
2023-12-10T11:09:09.773Z,6.33
2023-12-10T11:11:40.753Z,6.52
2023-12-10T11:14:24.153Z,6.64
2023-12-10T11:17:02.780Z,6.65
2023-12-10T11:19:30.120Z,6.65
2023-12-10T11:21:57.006Z,6.60
2023-12-10T11:24:24.301Z,6.53
2023-12-10T11:26:51.263Z,6.52
2023-12-10T11:29:17.993Z,6.68
2023-12-10T11:31:47.496Z,6.63
2023-12-10T11:34:14.645Z,6.72
2023-12-10T11:36:47.563Z,6.84
2023-12-10T11:39:17.410Z,6.96
2023-12-10T11:41:55.632Z,6.98
2023-12-10T11:44:26.894Z,6.79
2023-12-10T11:46:55.831Z,6.68
2023-12-10T11:49:24.555Z,6.61
2023-12-10T11:51:51.178Z,6.52
2023-12-10T11:54:18.966Z,6.59
2023-12-10T11:56:45.704Z,6.58
2023-12-10T11:59:13.155Z,6.60
2023-12-10T12:01:40.835Z,6.65
2023-12-10T12:04:08.085Z,6.39
2023-12-10T12:06:42.763Z,6.40
2023-12-10T12:09:14.317Z,6.41
2023-12-10T12:11:41.149Z,6.39
2023-12-10T12:14:14.560Z,6.17
2023-12-10T12:16:41.123Z,6.23
2023-12-10T12:19:07.791Z,6.19
2023-12-10T12:21:34.468Z,6.29
2023-12-10T12:24:01.135Z,6.31
2023-12-10T12:26:27.737Z,6.15
2023-12-10T12:28:54.273Z,6.26
2023-12-10T12:31:20.865Z,6.19
2023-12-10T12:33:49.279Z,6.13
2023-12-10T12:36:16.037Z,6.25
2023-12-10T12:38:45.243Z,6.19
2023-12-10T12:41:11.880Z,6.25
2023-12-10T12:43:38.383Z,6.37
2023-12-10T12:46:05.571Z,6.27
2023-12-10T12:48:32.272Z,6.28
2023-12-10T12:50:58.937Z,6.22
2023-12-10T12:53:25.465Z,6.27
2023-12-10T12:55:52.063Z,6.17
2023-12-10T12:58:18.743Z,6.13
2023-12-10T13:00:45.470Z,6.20
2023-12-10T13:03:12.106Z,6.27
2023-12-10T13:05:38.724Z,6.14
2023-12-10T13:08:05.515Z,6.12
2023-12-10T13:10:32.219Z,6.18
2023-12-10T13:12:58.788Z,6.16
2023-12-10T13:15:25.388Z,6.09
2023-12-10T13:17:52.029Z,6.01
2023-12-10T13:20:19.521Z,5.91
2023-12-10T13:22:46.063Z,5.94
2023-12-10T13:25:12.758Z,6.00
2023-12-10T13:27:39.417Z,6.03
2023-12-10T13:30:06.579Z,5.94
2023-12-10T13:32:35.252Z,6.09
2023-12-10T13:35:02.008Z,6.14
2023-12-10T13:37:28.839Z,6.09
2023-12-10T13:39:55.682Z,6.07
2023-12-10T13:42:22.378Z,5.98
2023-12-10T13:44:48.973Z,5.99
2023-12-10T13:47:15.614Z,6.12
2023-12-10T13:49:42.536Z,5.96
2023-12-10T13:52:09.826Z,5.97
2023-12-10T13:54:36.692Z,5.85
2023-12-10T13:57:03.366Z,5.81
2023-12-10T13:59:29.931Z,5.94
2023-12-10T14:01:56.532Z,5.81
2023-12-10T14:04:23.529Z,5.82
2023-12-10T14:06:50.278Z,5.58
2023-12-10T14:09:16.850Z,5.78
2023-12-10T14:11:44.584Z,5.80
2023-12-10T14:14:14.857Z,5.83
2023-12-10T14:16:43.849Z,5.76
2023-12-10T14:19:11.005Z,5.78
2023-12-10T14:21:37.767Z,5.68
2023-12-10T14:24:05.469Z,5.75
2023-12-10T14:26:32.232Z,5.69
2023-12-10T14:28:59.437Z,5.61
2023-12-10T14:31:27.563Z,5.67
2023-12-10T14:33:55.134Z,5.75
2023-12-10T14:36:21.905Z,5.61
2023-12-10T14:38:48.515Z,5.60
2023-12-10T14:41:15.174Z,5.61
2023-12-10T14:43:41.704Z,5.52
2023-12-10T14:46:08.933Z,5.42
2023-12-10T14:48:35.763Z,5.44
2023-12-10T14:51:02.652Z,5.40
2023-12-10T14:53:29.380Z,5.41
2023-12-10T14:55:56.180Z,5.31
2023-12-10T14:58:22.794Z,5.29
2023-12-10T15:00:49.590Z,5.33
2023-12-10T15:03:19.780Z,5.24
2023-12-10T15:05:50.073Z,5.24
2023-12-10T15:08:20.286Z,5.14
2023-12-10T15:10:47.666Z,5.15
2023-12-10T15:13:15.402Z,5.09
2023-12-10T15:15:42.361Z,5.11
2023-12-10T15:18:09.145Z,4.96
2023-12-10T15:20:35.748Z,4.97
2023-12-10T15:23:02.317Z,4.94
2023-12-10T15:25:28.900Z,5.02
2023-12-10T15:27:59.737Z,4.92
2023-12-10T15:30:31.048Z,4.87
2023-12-10T15:33:00.679Z,4.89
2023-12-10T15:35:29.450Z,4.93
2023-12-10T15:37:56.146Z,4.81
2023-12-10T15:40:23.960Z,4.79
2023-12-10T15:42:50.758Z,4.72
2023-12-10T15:45:18.684Z,4.79
2023-12-10T15:47:46.028Z,4.78
2023-12-10T15:50:12.859Z,4.99
2023-12-10T15:52:41.151Z,4.91
2023-12-10T15:55:09.183Z,4.88
2023-12-10T15:57:36.135Z,4.82
2023-12-10T16:00:05.724Z,4.86
2023-12-10T16:02:39.469Z,4.77
2023-12-10T16:05:06.670Z,4.73
2023-12-10T16:07:41.302Z,4.69
2023-12-10T16:10:15.613Z,4.58
2023-12-10T16:12:42.287Z,4.62
2023-12-10T16:15:09.284Z,4.57
2023-12-10T16:17:35.882Z,4.72
2023-12-10T16:20:02.529Z,4.74
2023-12-10T16:22:29.548Z,4.64
2023-12-10T16:24:56.487Z,4.62
2023-12-10T16:27:23.697Z,4.72
2023-12-10T16:29:50.356Z,4.86
2023-12-10T16:32:16.915Z,4.89
2023-12-10T16:34:43.887Z,4.86
2023-12-10T16:37:10.717Z,4.89
2023-12-10T16:39:37.297Z,4.83
2023-12-10T16:42:04.091Z,4.73
2023-12-10T16:44:30.987Z,4.72
2023-12-10T16:46:59.117Z,4.66
2023-12-10T16:49:28.606Z,4.61
2023-12-10T16:51:55.435Z,4.54
2023-12-10T16:54:22.332Z,4.54
2023-12-10T16:56:49.208Z,4.54
2023-12-10T16:59:16.884Z,4.55
2023-12-10T17:01:43.925Z,4.57
2023-12-10T17:04:10.742Z,4.55
2023-12-10T17:06:37.421Z,4.56
2023-12-10T17:09:04.576Z,4.57
2023-12-10T17:11:31.689Z,4.55
2023-12-10T17:13:58.545Z,4.47
2023-12-10T17:16:25.620Z,4.40
2023-12-10T17:18:52.466Z,4.40
2023-12-10T17:21:19.276Z,4.33
2023-12-10T17:23:45.878Z,4.28
2023-12-10T17:26:12.622Z,4.22
2023-12-10T17:28:39.376Z,4.14
2023-12-10T17:31:10.117Z,4.06
2023-12-10T17:33:37.040Z,4.05
2023-12-10T17:36:03.999Z,4.00
2023-12-10T17:38:30.684Z,3.96
2023-12-10T17:40:57.230Z,3.92
2023-12-10T17:43:23.797Z,3.86
2023-12-10T17:45:50.932Z,3.83
2023-12-10T17:48:17.815Z,3.86
2023-12-10T17:50:44.496Z,3.74
2023-12-10T17:53:11.572Z,3.74
2023-12-10T17:55:38.491Z,3.66
2023-12-10T17:58:05.140Z,3.57
2023-12-10T18:00:32.099Z,3.56
2023-12-10T18:02:58.989Z,3.49
2023-12-10T18:05:25.596Z,3.48
2023-12-10T18:07:52.431Z,3.46
2023-12-10T18:10:19.113Z,3.40
2023-12-10T18:12:45.742Z,3.39
2023-12-10T18:15:13.509Z,3.37
2023-12-10T18:17:40.269Z,3.37
2023-12-10T18:20:07.282Z,3.37
2023-12-10T18:22:33.926Z,3.32
2023-12-10T18:25:00.559Z,3.33
2023-12-10T18:27:27.368Z,3.31
2023-12-10T18:29:54.182Z,3.27
2023-12-10T18:32:20.734Z,3.28
2023-12-10T18:34:48.212Z,3.25
2023-12-10T18:37:15.420Z,3.23
2023-12-10T18:39:43.390Z,3.25
2023-12-10T18:42:11.708Z,3.26
2023-12-10T18:44:38.592Z,3.28
2023-12-10T18:47:05.174Z,3.28
2023-12-10T18:49:31.767Z,3.36
2023-12-10T18:51:58.483Z,3.42
2023-12-10T18:54:28.143Z,3.44
2023-12-10T18:56:56.268Z,3.41
2023-12-10T18:59:22.927Z,3.41
2023-12-10T19:01:49.774Z,3.52
2023-12-10T19:04:17.095Z,3.49
2023-12-10T19:06:43.818Z,3.54
2023-12-10T19:09:10.386Z,3.58
2023-12-10T19:11:36.979Z,3.55
2023-12-10T19:14:03.722Z,3.58
2023-12-10T19:16:30.299Z,3.65
2023-12-10T19:18:58.202Z,3.65
2023-12-10T19:21:24.998Z,3.63
2023-12-10T19:23:51.708Z,3.54
2023-12-10T19:26:18.359Z,3.55
2023-12-10T19:28:46.193Z,3.51
2023-12-10T19:31:12.921Z,3.42
2023-12-10T19:33:40.324Z,3.41
2023-12-10T19:36:14.862Z,3.44
2023-12-10T19:38:41.387Z,3.38
2023-12-10T19:41:08.068Z,3.37
2023-12-10T19:43:34.569Z,3.31
2023-12-10T19:46:01.254Z,3.30
2023-12-10T19:48:28.550Z,3.26
2023-12-10T19:50:55.536Z,3.18
2023-12-10T19:53:22.747Z,3.15
2023-12-10T19:55:51.572Z,3.10
2023-12-10T19:58:18.385Z,3.06
2023-12-10T20:00:46.898Z,3.08
2023-12-10T20:03:13.725Z,3.00
2023-12-10T20:05:40.467Z,2.96
2023-12-10T20:08:08.100Z,3.01
2023-12-10T20:10:34.608Z,3.02
2023-12-10T20:13:01.647Z,3.03
2023-12-10T20:15:28.254Z,3.06
2023-12-10T20:17:55.055Z,3.19
2023-12-10T20:20:21.831Z,3.26
2023-12-10T20:22:48.390Z,3.30
2023-12-10T20:25:19.341Z,3.32
2023-12-10T20:27:50.826Z,3.26
2023-12-10T20:30:21.232Z,3.28
2023-12-10T20:32:49.766Z,3.21
2023-12-10T20:35:16.527Z,3.38
2023-12-10T20:37:45.500Z,3.32
2023-12-10T20:40:13.724Z,3.34
2023-12-10T20:42:40.359Z,3.36
2023-12-10T20:45:08.279Z,3.38
2023-12-10T20:47:34.928Z,3.37
2023-12-10T20:50:01.512Z,3.38
2023-12-10T20:52:28.115Z,3.43
2023-12-10T20:54:54.690Z,3.63
2023-12-10T20:57:21.705Z,3.66
2023-12-10T20:59:48.325Z,3.76
2023-12-10T21:02:15.008Z,3.84
2023-12-10T21:04:44.477Z,3.88
2023-12-10T21:07:11.435Z,4.04
2023-12-10T21:09:38.227Z,4.06
2023-12-10T21:12:05.803Z,3.98
2023-12-10T21:14:32.449Z,3.97
2023-12-10T21:16:59.559Z,3.96
2023-12-10T21:19:26.664Z,3.96
2023-12-10T21:21:53.376Z,4.03
2023-12-10T21:24:20.005Z,4.06
2023-12-10T21:26:46.539Z,4.05
2023-12-10T21:29:13.192Z,4.06
2023-12-10T21:31:39.876Z,4.14
2023-12-10T21:34:06.693Z,4.18
2023-12-10T21:36:34.068Z,4.42
2023-12-10T21:39:00.729Z,4.53
2023-12-10T21:41:27.804Z,4.67
2023-12-10T21:43:55.237Z,4.75
2023-12-10T21:46:22.205Z,4.87
2023-12-10T21:48:49.813Z,4.85
2023-12-10T21:51:16.465Z,4.83
2023-12-10T21:53:42.981Z,4.77
2023-12-10T21:56:10.257Z,4.76
2023-12-10T21:58:44.049Z,4.73
2023-12-10T22:01:11.746Z,4.78
2023-12-10T22:03:38.407Z,4.75
2023-12-10T22:06:05.134Z,4.76
2023-12-10T22:08:31.816Z,4.74
2023-12-10T22:10:58.533Z,4.72
2023-12-10T22:13:25.665Z,4.71
2023-12-10T22:15:52.256Z,4.72
2023-12-10T22:18:19.001Z,4.69
2023-12-10T22:20:46.491Z,4.64
2023-12-10T22:23:13.049Z,4.65
2023-12-10T22:25:39.595Z,4.61
2023-12-10T22:28:06.119Z,4.54
2023-12-10T22:30:32.695Z,4.51
2023-12-10T22:32:59.907Z,4.41
2023-12-10T22:35:27.268Z,4.35
2023-12-10T22:37:54.669Z,4.32
2023-12-10T22:40:22.029Z,4.23
2023-12-10T22:42:49.775Z,4.20
2023-12-10T22:45:16.320Z,4.27
2023-12-10T22:47:43.012Z,4.28
2023-12-10T22:50:09.769Z,4.31
2023-12-10T22:52:36.472Z,4.27
2023-12-10T22:55:03.165Z,4.29
2023-12-10T22:57:30.026Z,4.32
2023-12-10T22:59:56.765Z,4.35
2023-12-10T23:02:23.553Z,4.45
2023-12-10T23:04:50.497Z,4.50
2023-12-10T23:07:17.262Z,4.54
2023-12-10T23:09:43.835Z,4.61
2023-12-10T23:12:10.357Z,4.62
2023-12-10T23:14:38.487Z,4.67
2023-12-10T23:17:05.127Z,4.72
2023-12-10T23:19:31.731Z,4.69
2023-12-10T23:21:58.345Z,4.77
2023-12-10T23:24:24.898Z,4.82
2023-12-10T23:26:51.437Z,4.84
2023-12-10T23:29:17.949Z,4.83
2023-12-10T23:31:45.173Z,4.85
2023-12-10T23:34:11.762Z,4.81
2023-12-10T23:36:38.376Z,4.82
2023-12-10T23:39:05.386Z,4.82
2023-12-10T23:41:37.673Z,4.89
2023-12-10T23:44:06.973Z,4.92
2023-12-10T23:46:34.059Z,4.97
2023-12-10T23:49:00.909Z,5.11
2023-12-10T23:51:27.896Z,5.11
2023-12-10T23:53:54.434Z,5.11
2023-12-10T23:56:20.928Z,5.35
2023-12-10T23:58:47.460Z,5.37
